Seattle, Washington
Current Conditions -  °F | °C
As of 6:53 AM on Saturday 20 Dec 2014 (Local Time) from KBFI Reporting Station
Light Rain Light Rain  
Wind Chill: 47°   Ceiling: 4200
Heat Index: 47°   Visibility: 6mi
Dew Point: 42°   Wind: 0mph
Humidity: 83%   Direction: NA
Pressure: 29.66"   Gusts: NA
Location:  47.6°N, 122.32°W
Report Text: KBFI 201453Z 00000KT 6SM -RA OVC042 08/06 A2966 RMK AO2 SLP044 P0010 60015 T00830056 56026
Loading
Personal Weather Stations






























Interactive Weather Map New forecast layout! Learn more

10-Day Weather Forecast

Advertisements
Track Severe Weather on mobile